Terminal Aerodrome Forecast
Issued by NWS

Home | Current Version | Previous Version | Text Only | Print | Product List | Glossary On
Versions: 1 2 3 4 5 6 7 8 9 10 11 12 13 14 15 16 17 18 19 20 21
000
FTUS44 KLZK 261700 RRA
TAFBPK
TAF
KBPK 261743Z 2618/2718 35009G17KT P6SM SCT020 OVC100
      TEMPO 2618/2620 BKN020
     FM262200 34008G15KT P6SM SCT040 SCT100
     FM270000 VRB03KT P6SM SKC
     FM270600 VRB03KT P6SM SCT050 OVC100
     FM271000 34002KT P6SM BKN050 PROB30 2710/2714 3SM -SNRA BR
      BKN020
     FM271400 01008KT P6SM VCSH BKN020 OVC050=

USA.gov is the U.S. government's official web portal to all federal, state and local government web resources and services.